Time;durP1;ratioP1;P1;durP2;ratioP2;P2;SDS_P1;SDS_P2;PMS_P1;PMS_P2;Temp;Humidity;BMP_temperature;BMP_pressure;BME280_temperature;BME280_humidity;BME280_pressure;Samples;Min_cycle;Max_cycle;Signal;HPM_P1;HPM_P2
2023/06/24 00:00:55;;;;;;;0.10;0.10;;;;;;;;;;5113882;27;20564;-44
2023/06/24 00:03:21;;;;;;;0.10;0.10;;;;;;;;;;5108794;28;20933;-42
2023/06/24 00:05:49;;;;;;;0.10;0.10;;;;;;;;;;5125199;28;20086;-42
2023/06/24 00:08:18;;;;;;;0.10;0.10;;;;;;;;;;5124474;27;20058;-43
2023/06/24 00:10:47;;;;;;;0.10;0.10;;;;;;;;;;5108141;28;20071;-43
2023/06/24 00:13:14;;;;;;;0.10;0.10;;;;;;;;;;5108416;28;20410;-44
2023/06/24 00:15:42;;;;;;;0.10;0.10;;;;;;;;;;5122154;28;20411;-43
2023/06/24 00:18:09;;;;;;;0.10;0.10;;;;;;;;;;5126022;28;20047;-43
2023/06/24 00:20:35;;;;;;;0.20;0.20;;;;;;;;;;5119796;27;20044;-45
2023/06/24 00:23:01;;;;;;;0.10;0.10;;;;;;;;;;5090119;28;20052;-43
2023/06/24 00:25:27;;;;;;;0.10;0.10;;;;;;;;;;5108395;28;20077;-44
2023/06/24 00:27:52;;;;;;;0.10;0.10;;;;;;;;;;5127321;28;20406;-42
2023/06/24 00:30:18;;;;;;;0.10;0.10;;;;;;;;;;5122281;28;20089;-44
2023/06/24 00:32:43;;;;;;;0.10;0.10;;;;;;;;;;5109042;27;20210;-41
2023/06/24 00:35:12;;;;;;;0.10;0.10;;;;;;;;;;5127923;28;20043;-44
2023/06/24 00:37:37;;;;;;;0.10;0.10;;;;;;;;;;5110919;28;20051;-43
2023/06/24 00:40:04;;;;;;;0.10;0.10;;;;;;;;;;5128307;28;20054;-43
2023/06/24 00:42:30;;;;;;;0.10;0.10;;;;;;;;;;5128082;28;20416;-44
2023/06/24 00:44:56;;;;;;;0.10;0.10;;;;;;;;;;5128300;27;20062;-44
2023/06/24 00:47:22;;;;;;;0.10;0.10;;;;;;;;;;5128670;28;20070;-44
2023/06/24 00:49:48;;;;;;;0.10;0.10;;;;;;;;;;5126211;27;20051;-43
2023/06/24 00:52:15;;;;;;;0.10;0.10;;;;;;;;;;5108442;28;20104;-43
2023/06/24 00:54:41;;;;;;;0.10;0.10;;;;;;;;;;5108229;28;20046;-43
2023/06/24 00:57:07;;;;;;;0.10;0.10;;;;;;;;;;5108839;28;20075;-41
2023/06/24 00:59:33;;;;;;;0.10;0.10;;;;;;;;;;5122491;28;20058;-42
2023/06/24 01:02:04;;;;;;;0.10;0.10;;;;;;;;;;5128215;28;20087;-44
2023/06/24 01:04:30;;;;;;;0.10;0.10;;;;;;;;;;5128834;28;20051;-43
2023/06/24 01:06:57;;;;;;;0.10;0.10;;;;;;;;;;5128510;28;20071;-42
2023/06/24 01:09:23;;;;;;;0.10;0.10;;;;;;;;;;5128258;28;20047;-44
2023/06/24 01:11:48;;;;;;;0.10;0.10;;;;;;;;;;5109972;28;20049;-42
2023/06/24 01:14:14;;;;;;;0.10;0.10;;;;;;;;;;5128131;28;20058;-42
2023/06/24 01:16:59;;;;;;;0.10;0.10;;;;;;;;;;5128631;28;20080;-44
2023/06/24 01:19:45;;;;;;;0.10;0.10;;;;;;;;;;5118417;28;20105;-42
2023/06/24 01:22:23;;;;;;;0.10;0.10;;;;;;;;;;5092300;28;20051;-44
2023/06/24 01:25:09;;;;;;;0.10;0.10;;;;;;;;;;5107293;28;20059;-43
2023/06/24 01:27:45;;;;;;;0.10;0.10;;;;;;;;;;5093656;28;20058;-43
2023/06/24 01:30:31;;;;;;;0.10;0.10;;;;;;;;;;5122027;28;20047;-43
2023/06/24 01:32:59;;;;;;;0.10;0.10;;;;;;;;;;5105757;27;20055;-45
2023/06/24 01:35:28;;;;;;;0.10;0.10;;;;;;;;;;5146723;27;20277;-43
2023/06/24 01:37:54;;;;;;;0.10;0.10;;;;;;;;;;5127212;28;20419;-42
2023/06/24 01:40:30;;;;;;;0.10;0.10;;;;;;;;;;5128042;28;20475;-46
2023/06/24 01:42:58;;;;;;;0.10;0.10;;;;;;;;;;5127769;28;20047;-44
2023/06/24 01:45:26;;;;;;;0.10;0.10;;;;;;;;;;5109157;28;20230;-45
2023/06/24 01:47:52;;;;;;;;;;;;;;;;;;5128010;28;20051;-41
2023/06/24 01:50:19;;;;;;;0.10;0.10;;;;;;;;;;5127820;28;20342;-43
2023/06/24 01:52:45;;;;;;;0.10;0.10;;;;;;;;;;5109307;28;20075;-44
2023/06/24 01:55:13;;;;;;;0.10;0.10;;;;;;;;;;5127221;28;20083;-43
2023/06/24 01:57:39;;;;;;;0.10;0.10;;;;;;;;;;5127907;28;20070;-43
2023/06/24 02:00:07;;;;;;;0.10;0.10;;;;;;;;;;5107592;28;20122;-43
2023/06/24 02:02:33;;;;;;;0.10;0.10;;;;;;;;;;5127276;28;20051;-43
2023/06/24 02:05:01;;;;;;;0.10;0.10;;;;;;;;;;5127740;27;20289;-45
2023/06/24 02:07:29;;;;;;;0.10;0.10;;;;;;;;;;5127456;27;20449;-46
2023/06/24 02:09:55;;;;;;;0.15;0.15;;;;;;;;;;5123646;27;20079;-43
2023/06/24 02:12:21;;;;;;;0.10;0.10;;;;;;;;;;5107109;28;20054;-42
2023/06/24 02:14:48;;;;;;;0.10;0.10;;;;;;;;;;5106302;28;20048;-45
2023/06/24 02:17:14;;;;;;;0.10;0.10;;;;;;;;;;5106647;28;20082;-43
2023/06/24 02:19:40;;;;;;;0.10;0.10;;;;;;;;;;5111130;28;20050;-44
2023/06/24 02:22:09;;;;;;;0.10;0.10;;;;;;;;;;5126153;28;20088;-44
2023/06/24 02:24:36;;;;;;;0.10;0.10;;;;;;;;;;5126823;27;20086;-43
2023/06/24 02:27:02;;;;;;;0.10;0.10;;;;;;;;;;5126823;27;20082;-42
2023/06/24 02:29:29;;;;;;;0.10;0.10;;;;;;;;;;5126997;27;20043;-43
2023/06/24 02:31:54;;;;;;;0.10;0.10;;;;;;;;;;5116806;27;20086;-42
2023/06/24 02:34:20;;;;;;;0.10;0.10;;;;;;;;;;5140647;27;20142;-43
2023/06/24 02:36:45;;;;;;;0.10;0.10;;;;;;;;;;5147976;27;20046;-44
2023/06/24 02:39:11;;;;;;;0.10;0.10;;;;;;;;;;5126968;27;20050;-46
2023/06/24 02:41:36;;;;;;;0.10;0.10;;;;;;;;;;5108412;28;20051;-45
2023/06/24 02:44:02;;;;;;;0.10;0.10;;;;;;;;;;5105924;28;20105;-43
2023/06/24 02:46:29;;;;;;;0.10;0.10;;;;;;;;;;5120404;28;20051;-45
2023/06/24 02:48:56;;;;;;;0.10;0.10;;;;;;;;;;5126578;27;20048;-46
2023/06/24 02:51:21;;;;;;;0.10;0.10;;;;;;;;;;5110472;27;20052;-46
2023/06/24 02:53:48;;;;;;;0.10;0.10;;;;;;;;;;5105610;28;20333;-44
2023/06/24 02:56:14;;;;;;;0.10;0.10;;;;;;;;;;5106480;28;20081;-48
2023/06/24 02:58:41;;;;;;;0.10;0.10;;;;;;;;;;5106515;28;20044;-47
2023/06/24 03:01:06;;;;;;;0.10;0.10;;;;;;;;;;5106256;28;20058;-45
2023/06/24 03:03:32;;;;;;;0.10;0.10;;;;;;;;;;5123738;28;20529;-47
2023/06/24 03:05:58;;;;;;;0.10;0.10;;;;;;;;;;5126776;28;20046;-48
2023/06/24 03:08:24;;;;;;;0.10;0.10;;;;;;;;;;5108047;28;20411;-48
2023/06/24 03:10:50;;;;;;;0.10;0.10;;;;;;;;;;5108179;28;20078;-45
2023/06/24 03:13:16;;;;;;;0.10;0.10;;;;;;;;;;5126599;28;20487;-48
2023/06/24 03:15:41;;;;;;;0.10;0.10;;;;;;;;;;5125970;28;20126;-47
2023/06/24 03:18:07;;;;;;;0.10;0.10;;;;;;;;;;5126965;28;20205;-48
2023/06/24 03:20:38;;;;;;;0.10;0.10;;;;;;;;;;5126565;28;20043;-47
2023/06/24 03:23:05;;;;;;;0.10;0.10;;;;;;;;;;5125754;28;20051;-47
2023/06/24 03:25:31;;;;;;;0.10;0.10;;;;;;;;;;5108248;28;20058;-47
2023/06/24 03:27:56;;;;;;;0.10;0.10;;;;;;;;;;5126842;28;20474;-48
2023/06/24 03:30:22;;;;;;;0.10;0.10;;;;;;;;;;5125614;28;20054;-46
2023/06/24 03:32:47;;;;;;;0.10;0.10;;;;;;;;;;5126764;27;20119;-46
2023/06/24 03:35:13;;;;;;;0.10;0.10;;;;;;;;;;5146918;27;20467;-47
2023/06/24 03:37:39;;;;;;;0.10;0.10;;;;;;;;;;5147183;27;20046;-48
2023/06/24 03:40:05;;;;;;;0.10;0.10;;;;;;;;;;5133299;27;20491;-48
2023/06/24 03:42:30;;;;;;;0.10;0.10;;;;;;;;;;5125795;28;20441;-48
2023/06/24 03:44:56;;;;;;;0.10;0.10;;;;;;;;;;5125632;27;20051;-48
2023/06/24 03:47:21;;;;;;;0.10;0.10;;;;;;;;;;5128852;28;20051;-46
2023/06/24 03:49:47;;;;;;;0.10;0.10;;;;;;;;;;5127877;28;20204;-48
2023/06/24 03:52:12;;;;;;;0.10;0.10;;;;;;;;;;5129831;28;20047;-49
2023/06/24 03:54:39;;;;;;;0.10;0.10;;;;;;;;;;5129299;28;20051;-48
2023/06/24 03:57:06;;;;;;;0.10;0.10;;;;;;;;;;5129340;28;20483;-48
2023/06/24 03:59:31;;;;;;;0.10;0.10;;;;;;;;;;5129521;28;20082;-48
2023/06/24 04:01:57;;;;;;;0.10;0.10;;;;;;;;;;5110824;28;20062;-47
2023/06/24 04:04:23;;;;;;;0.10;0.10;;;;;;;;;;5128534;28;20479;-46
2023/06/24 04:06:48;;;;;;;0.10;0.10;;;;;;;;;;5129224;27;20204;-48
2023/06/24 04:09:14;;;;;;;0.10;0.10;;;;;;;;;;5128706;28;20078;-49
2023/06/24 04:11:40;;;;;;;0.10;0.10;;;;;;;;;;5110707;28;20043;-48
2023/06/24 04:14:06;;;;;;;0.10;0.10;;;;;;;;;;5108343;28;20050;-48
2023/06/24 04:16:32;;;;;;;0.10;0.10;;;;;;;;;;5108391;28;20056;-48
2023/06/24 04:18:57;;;;;;;0.10;0.10;;;;;;;;;;5108727;28;20057;-46
2023/06/24 04:21:23;;;;;;;0.10;0.10;;;;;;;;;;5108014;28;20091;-47
2023/06/24 04:23:48;;;;;;;0.10;0.10;;;;;;;;;;5119330;28;20060;-48
2023/06/24 04:26:14;;;;;;;0.10;0.10;;;;;;;;;;5129362;28;20464;-48
2023/06/24 04:28:40;;;;;;;0.10;0.10;;;;;;;;;;5129524;28;20399;-47
2023/06/24 04:31:05;;;;;;;0.10;0.10;;;;;;;;;;5129043;27;20483;-46
2023/06/24 04:33:31;;;;;;;0.10;0.10;;;;;;;;;;5130129;27;20047;-45
2023/06/24 04:35:58;;;;;;;0.10;0.10;;;;;;;;;;5128710;28;20546;-46
2023/06/24 04:38:23;;;;;;;0.10;0.10;;;;;;;;;;5129002;28;20067;-48
2023/06/24 04:40:49;;;;;;;0.10;0.10;;;;;;;;;;5128248;28;20469;-46
2023/06/24 04:43:15;;;;;;;0.10;0.10;;;;;;;;;;5128267;28;20069;-47
2023/06/24 04:45:40;;;;;;;0.10;0.10;;;;;;;;;;5128553;28;20043;-48
2023/06/24 04:48:06;;;;;;;0.10;0.10;;;;;;;;;;5129111;28;20043;-48
2023/06/24 04:50:31;;;;;;;0.10;0.10;;;;;;;;;;5119790;28;20286;-47
2023/06/24 04:52:57;;;;;;;0.10;0.10;;;;;;;;;;5108437;28;20109;-48
2023/06/24 04:55:23;;;;;;;0.10;0.10;;;;;;;;;;5108338;28;20533;-48
2023/06/24 04:57:49;;;;;;;0.10;0.10;;;;;;;;;;5108256;28;20051;-48
2023/06/24 05:00:14;;;;;;;0.10;0.10;;;;;;;;;;5108143;28;20415;-48
2023/06/24 05:02:40;;;;;;;0.10;0.10;;;;;;;;;;5108504;28;20047;-47
2023/06/24 05:05:06;;;;;;;0.28;0.25;;;;;;;;;;5109051;28;20074;-47
2023/06/24 05:07:32;;;;;;;0.10;0.10;;;;;;;;;;5128344;27;20104;-49
2023/06/24 05:09:58;;;;;;;0.10;0.10;;;;;;;;;;5124109;28;20239;-48
2023/06/24 05:12:24;;;;;;;0.10;0.10;;;;;;;;;;5107997;28;20126;-49
2023/06/24 05:14:52;;;;;;;0.10;0.10;;;;;;;;;;5107729;28;20053;-47
2023/06/24 05:17:18;;;;;;;0.10;0.10;;;;;;;;;;5089863;28;20487;-49
2023/06/24 05:19:43;;;;;;;0.10;0.10;;;;;;;;;;5108137;28;20198;-45
2023/06/24 05:22:09;;;;;;;0.20;0.20;;;;;;;;;;5107897;28;20071;-48
2023/06/24 05:24:34;;;;;;;0.10;0.10;;;;;;;;;;5110525;28;20047;-46
2023/06/24 05:27:03;;;;;;;0.10;0.10;;;;;;;;;;5128290;27;20051;-48
2023/06/24 05:29:29;;;;;;;0.10;0.10;;;;;;;;;;5128697;28;20043;-47
2023/06/24 05:31:54;;;;;;;0.10;0.10;;;;;;;;;;5138579;27;20094;-48
2023/06/24 05:34:20;;;;;;;0.10;0.10;;;;;;;;;;5133863;27;20407;-48
2023/06/24 05:36:45;;;;;;;0.10;0.10;;;;;;;;;;5127677;28;20092;-48
2023/06/24 05:39:12;;;;;;;0.10;0.10;;;;;;;;;;5127943;28;20047;-47
2023/06/24 05:41:38;;;;;;;0.10;0.10;;;;;;;;;;5109468;28;20224;-46
2023/06/24 05:44:04;;;;;;;0.10;0.10;;;;;;;;;;5126840;28;20047;-48
2023/06/24 05:46:30;;;;;;;0.10;0.10;;;;;;;;;;5127480;28;20051;-48
2023/06/24 05:48:56;;;;;;;0.10;0.10;;;;;;;;;;5127807;28;20065;-49
2023/06/24 05:51:21;;;;;;;0.10;0.10;;;;;;;;;;5127092;28;20039;-49
2023/06/24 05:53:49;;;;;;;0.10;0.10;;;;;;;;;;5127186;28;20043;-48
2023/06/24 05:56:14;;;;;;;0.10;0.10;;;;;;;;;;5127483;28;20054;-48
2023/06/24 05:58:40;;;;;;;0.10;0.10;;;;;;;;;;5109371;28;20167;-46
2023/06/24 06:01:07;;;;;;;0.10;0.10;;;;;;;;;;5127482;28;20051;-46
2023/06/24 06:03:32;;;;;;;0.10;0.10;;;;;;;;;;5127165;28;20074;-45
2023/06/24 06:05:58;;;;;;;0.10;0.10;;;;;;;;;;5127553;28;20069;-48
2023/06/24 06:08:23;;;;;;;0.10;0.10;;;;;;;;;;5125465;27;20054;-48
2023/06/24 06:10:49;;;;;;;0.10;0.10;;;;;;;;;;5127159;28;20109;-47
2023/06/24 06:13:16;;;;;;;0.10;0.10;;;;;;;;;;5127037;28;20051;-45
2023/06/24 06:15:41;;;;;;;0.20;0.20;;;;;;;;;;5126927;28;20047;-47
2023/06/24 06:18:07;;;;;;;0.10;0.10;;;;;;;;;;5127140;28;20234;-47
2023/06/24 06:20:32;;;;;;;0.10;0.10;;;;;;;;;;5126806;28;20058;-46
2023/06/24 06:22:58;;;;;;;0.10;0.10;;;;;;;;;;5126942;27;20138;-48
2023/06/24 06:25:23;;;;;;;0.10;0.10;;;;;;;;;;5127631;28;20047;-48
2023/06/24 06:27:49;;;;;;;0.10;0.10;;;;;;;;;;5127356;28;20047;-48
2023/06/24 06:30:15;;;;;;;0.10;0.10;;;;;;;;;;5120477;28;20058;-49
2023/06/24 06:32:40;;;;;;;0.10;0.10;;;;;;;;;;5145240;27;20047;-48
2023/06/24 06:35:06;;;;;;;0.10;0.10;;;;;;;;;;5128231;28;20053;-47
2023/06/24 06:37:32;;;;;;;0.10;0.10;;;;;;;;;;5113441;28;20082;-45
2023/06/24 06:39:57;;;;;;;0.10;0.10;;;;;;;;;;5123310;28;20415;-45
2023/06/24 06:42:23;;;;;;;0.10;0.10;;;;;;;;;;5106540;28;20180;-45
2023/06/24 06:44:48;;;;;;;0.10;0.10;;;;;;;;;;5113017;28;20046;-47
2023/06/24 06:47:14;;;;;;;0.10;0.10;;;;;;;;;;5127341;28;20043;-46
2023/06/24 06:49:39;;;;;;;0.10;0.10;;;;;;;;;;5126042;28;20051;-46
2023/06/24 06:52:05;;;;;;;0.10;0.10;;;;;;;;;;5108356;28;20040;-45
2023/06/24 06:54:31;;;;;;;0.10;0.10;;;;;;;;;;5110088;28;20082;-46
2023/06/24 06:57:04;;;;;;;0.10;0.10;;;;;;;;;;5127346;28;20062;-44
2023/06/24 06:59:30;;;;;;;0.10;0.10;;;;;;;;;;5127731;28;20069;-48
2023/06/24 07:01:55;;;;;;;0.10;0.10;;;;;;;;;;5127392;28;20662;-48
2023/06/24 07:04:21;;;;;;;0.10;0.10;;;;;;;;;;5127260;28;20123;-46
2023/06/24 07:06:47;;;;;;;0.10;0.10;;;;;;;;;;5109207;28;20142;-46
2023/06/24 07:09:12;;;;;;;0.10;0.10;;;;;;;;;;5126699;28;20047;-48
2023/06/24 07:11:38;;;;;;;0.10;0.10;;;;;;;;;;5110033;28;20043;-46
2023/06/24 07:14:03;;;;;;;0.10;0.10;;;;;;;;;;5106492;28;20051;-46
2023/06/24 07:16:29;;;;;;;0.10;0.10;;;;;;;;;;5106700;28;20138;-47
2023/06/24 07:18:54;;;;;;;0.10;0.10;;;;;;;;;;5106939;28;20044;-47
2023/06/24 07:21:20;;;;;;;0.10;0.10;;;;;;;;;;5109655;28;20062;-46
2023/06/24 07:23:46;;;;;;;0.20;0.20;;;;;;;;;;5109991;28;20092;-48
2023/06/24 07:26:12;;;;;;;0.10;0.10;;;;;;;;;;5110359;28;20482;-45
2023/06/24 07:28:37;;;;;;;0.10;0.10;;;;;;;;;;5116970;28;20055;-45
2023/06/24 07:31:03;;;;;;;0.10;0.10;;;;;;;;;;5115587;27;20043;-46
2023/06/24 07:33:30;;;;;;;0.10;0.10;;;;;;;;;;5110319;28;20200;-48
2023/06/24 07:35:56;;;;;;;0.10;0.10;;;;;;;;;;5109791;28;20507;-45
2023/06/24 07:38:21;;;;;;;0.10;0.10;;;;;;;;;;5111013;28;20050;-48
2023/06/24 07:40:47;;;;;;;0.10;0.10;;;;;;;;;;5119434;28;20478;-45
2023/06/24 07:43:13;;;;;;;0.10;0.10;;;;;;;;;;5109943;28;20040;-47
2023/06/24 07:45:38;;;;;;;0.10;0.10;;;;;;;;;;5109416;28;20064;-45
2023/06/24 07:48:04;;;;;;;0.10;0.10;;;;;;;;;;5129163;28;20039;-48
2023/06/24 07:50:31;;;;;;;0.10;0.10;;;;;;;;;;5121914;27;20056;-47
2023/06/24 07:52:57;;;;;;;0.10;0.10;;;;;;;;;;5110178;28;20048;-47
2023/06/24 07:55:22;;;;;;;0.10;0.10;;;;;;;;;;5123487;28;20238;-49
2023/06/24 07:57:48;;;;;;;0.10;0.10;;;;;;;;;;5130548;28;20051;-48
2023/06/24 08:00:14;;;;;;;0.10;0.10;;;;;;;;;;5123995;27;20054;-48
2023/06/24 08:02:40;;;;;;;0.10;0.10;;;;;;;;;;5109103;28;20047;-47
2023/06/24 08:05:06;;;;;;;0.10;0.10;;;;;;;;;;5109189;28;20155;-45
2023/06/24 08:07:31;;;;;;;0.10;0.10;;;;;;;;;;5109534;28;20567;-47
2023/06/24 08:09:57;;;;;;;0.10;0.10;;;;;;;;;;5117338;28;20417;-44
2023/06/24 08:12:22;;;;;;;0.10;0.10;;;;;;;;;;5130251;28;20555;-46
2023/06/24 08:14:48;;;;;;;0.10;0.10;;;;;;;;;;5129490;28;20414;-44
2023/06/24 08:17:13;;;;;;;0.13;0.13;;;;;;;;;;5129738;28;20069;-44
2023/06/24 08:19:39;;;;;;;0.10;0.10;;;;;;;;;;5128902;28;20043;-45
2023/06/24 08:22:04;;;;;;;0.10;0.10;;;;;;;;;;5109407;28;20414;-44
2023/06/24 08:24:31;;;;;;;0.10;0.10;;;;;;;;;;5109201;28;20046;-44
2023/06/24 08:26:56;;;;;;;0.10;0.10;;;;;;;;;;5091390;28;20055;-48
2023/06/24 08:29:22;;;;;;;0.10;0.10;;;;;;;;;;5134288;27;20038;-45
2023/06/24 08:31:47;;;;;;;0.10;0.10;;;;;;;;;;5128976;27;20521;-45
2023/06/24 08:34:13;;;;;;;0.10;0.10;;;;;;;;;;5129350;28;20047;-45
2023/06/24 08:36:38;;;;;;;0.10;0.10;;;;;;;;;;5129217;28;20044;-46
2023/06/24 08:39:04;;;;;;;0.10;0.10;;;;;;;;;;5129688;28;20228;-45
2023/06/24 08:41:30;;;;;;;0.10;0.10;;;;;;;;;;5118962;28;20035;-45
2023/06/24 08:43:55;;;;;;;0.10;0.10;;;;;;;;;;5127701;28;20054;-45
2023/06/24 08:46:23;;;;;;;0.10;0.10;;;;;;;;;;5129427;28;20073;-45
2023/06/24 08:48:49;;;;;;;;;;;;;;;;;;5129656;27;20074;-44
2023/06/24 08:51:16;;;;;;;0.10;0.10;;;;;;;;;;5129455;28;20019;-46
2023/06/24 08:53:43;;;;;;;0.10;0.10;;;;;;;;;;5129561;28;20039;-47
2023/06/24 08:56:08;;;;;;;0.10;0.10;;;;;;;;;;5128941;28;20095;-47
2023/06/24 08:58:34;;;;;;;0.10;0.10;;;;;;;;;;5129782;28;20129;-46
2023/06/24 09:01:00;;;;;;;0.10;0.10;;;;;;;;;;5110423;28;20058;-47
2023/06/24 09:03:25;;;;;;;0.10;0.10;;;;;;;;;;5110935;28;20047;-44
2023/06/24 09:05:51;;;;;;;0.10;0.10;;;;;;;;;;5129350;28;20078;-46
2023/06/24 09:08:18;;;;;;;0.10;0.10;;;;;;;;;;5128284;28;20138;-47
2023/06/24 09:10:43;;;;;;;0.10;0.10;;;;;;;;;;5128750;28;20063;-47
2023/06/24 09:13:09;;;;;;;0.10;0.10;;;;;;;;;;5129289;28;20407;-46
2023/06/24 09:15:36;;;;;;;0.10;0.10;;;;;;;;;;5128531;28;20043;-45
2023/06/24 09:18:03;;;;;;;0.10;0.10;;;;;;;;;;5111005;28;20047;-45
2023/06/24 09:20:30;;;;;;;0.10;0.10;;;;;;;;;;5128843;28;20479;-48
2023/06/24 09:22:59;;;;;;;0.10;0.10;;;;;;;;;;5129363;27;20074;-45
2023/06/24 09:25:25;;;;;;;0.10;0.10;;;;;;;;;;5110817;28;20060;-44
2023/06/24 09:27:55;;;;;;;0.10;0.10;;;;;;;;;;5127781;27;20039;-45
2023/06/24 09:30:22;;;;;;;0.10;0.10;;;;;;;;;;5116318;28;20050;-45
2023/06/24 09:32:48;;;;;;;0.10;0.10;;;;;;;;;;5120537;28;20043;-45
2023/06/24 09:35:17;;;;;;;0.10;0.10;;;;;;;;;;5129126;28;20522;-44
2023/06/24 09:37:43;;;;;;;0.10;0.10;;;;;;;;;;5129344;28;20090;-45
2023/06/24 09:40:10;;;;;;;0.10;0.10;;;;;;;;;;5128732;28;20047;-48
2023/06/24 09:42:35;;;;;;;0.10;0.10;;;;;;;;;;5128006;27;20382;-43
2023/06/24 09:45:05;;;;;;;0.10;0.10;;;;;;;;;;5125640;28;20084;-45
2023/06/24 09:47:31;;;;;;;0.10;0.10;;;;;;;;;;5128801;27;20419;-45
2023/06/24 09:49:56;;;;;;;0.10;0.10;;;;;;;;;;5128588;28;20055;-45
2023/06/24 09:52:23;;;;;;;0.10;0.10;;;;;;;;;;5128717;28;20130;-45
2023/06/24 09:54:50;;;;;;;0.10;0.10;;;;;;;;;;5128773;28;20056;-47
2023/06/24 09:57:17;;;;;;;0.10;0.10;;;;;;;;;;5128788;28;20124;-47
2023/06/24 09:59:43;;;;;;;0.10;0.10;;;;;;;;;;5126500;28;20043;-46
2023/06/24 10:02:12;;;;;;;0.10;0.10;;;;;;;;;;5108123;28;20050;-45
2023/06/24 10:04:38;;;;;;;0.10;0.10;;;;;;;;;;5107996;28;20048;-45
2023/06/24 10:07:03;;;;;;;0.10;0.10;;;;;;;;;;5108280;28;20355;-44
2023/06/24 10:09:29;;;;;;;0.10;0.10;;;;;;;;;;5107639;28;20040;-44
2023/06/24 10:11:55;;;;;;;0.13;0.13;;;;;;;;;;5107717;28;20047;-43
2023/06/24 10:14:20;;;;;;;0.10;0.10;;;;;;;;;;5106927;28;20187;-44
2023/06/24 10:16:46;;;;;;;0.10;0.10;;;;;;;;;;5107722;28;20078;-43
2023/06/24 10:19:18;;;;;;;0.10;0.10;;;;;;;;;;5108238;28;20419;-44
2023/06/24 10:21:47;;;;;;;0.10;0.10;;;;;;;;;;5107363;28;20479;-45
2023/06/24 10:24:12;;;;;;;0.10;0.10;;;;;;;;;;5107620;28;20052;-43
2023/06/24 10:26:39;;;;;;;0.10;0.10;;;;;;;;;;5107723;28;20043;-45
2023/06/24 10:31:42;;;;;;;0.10;0.10;;;;;;;;;;5186099;27;20375;-42
2023/06/24 10:37:00;;;;;;;0.10;0.10;;;;;;;;;;5186722;27;20136;-40
2023/06/24 10:39:45;;;;;;;0.10;0.10;;;;;;;;;;5165899;27;20050;-42
2023/06/24 10:42:31;;;;;;;0.10;0.10;;;;;;;;;;5129521;27;20328;-42
2023/06/24 10:44:58;;;;;;;0.20;0.20;;;;;;;;;;5143527;27;20509;-42
2023/06/24 10:47:24;;;;;;;0.10;0.10;;;;;;;;;;5163638;27;20085;-42
2023/06/24 10:49:51;;;;;;;0.10;0.10;;;;;;;;;;5162252;27;20043;-42
2023/06/24 10:52:21;;;;;;;0.10;0.10;;;;;;;;;;5154226;27;20103;-43
2023/06/24 10:54:47;;;;;;;0.10;0.10;;;;;;;;;;5165374;27;20054;-41
2023/06/24 10:57:12;;;;;;;0.10;0.10;;;;;;;;;;5165405;27;20077;-42
2023/06/24 10:59:42;;;;;;;0.10;0.10;;;;;;;;;;5165053;27;20078;-42
2023/06/24 11:02:09;;;;;;;0.10;0.10;;;;;;;;;;5164629;27;21171;-43
2023/06/24 11:04:51;;;;;;;0.10;0.10;;;;;;;;;;5165160;27;20129;-43
2023/06/24 11:07:17;;;;;;;0.10;0.10;;;;;;;;;;5165327;27;20167;-44
2023/06/24 11:09:48;;;;;;;0.10;0.10;;;;;;;;;;5161589;27;20129;-44
2023/06/24 11:12:13;;;;;;;0.10;0.10;;;;;;;;;;5144763;27;20047;-42
2023/06/24 11:14:40;;;;;;;0.10;0.10;;;;;;;;;;5144115;27;20115;-43
2023/06/24 11:17:05;;;;;;;0.10;0.10;;;;;;;;;;5144275;27;20455;-45
2023/06/24 11:19:31;;;;;;;0.10;0.10;;;;;;;;;;5144322;27;20311;-42
2023/06/24 11:21:58;;;;;;;0.10;0.10;;;;;;;;;;5139627;27;20551;-41
2023/06/24 11:24:24;;;;;;;0.10;0.10;;;;;;;;;;5123351;28;20100;-45
2023/06/24 11:26:50;;;;;;;0.10;0.10;;;;;;;;;;5124932;27;20047;-43
2023/06/24 11:29:16;;;;;;;0.10;0.10;;;;;;;;;;5149669;27;20049;-42
2023/06/24 11:31:41;;;;;;;0.10;0.10;;;;;;;;;;5127578;27;20047;-44
2023/06/24 11:34:09;;;;;;;0.10;0.10;;;;;;;;;;5139987;27;20503;-42
2023/06/24 11:36:34;;;;;;;0.10;0.10;;;;;;;;;;5143889;27;20050;-44
2023/06/24 11:39:00;;;;;;;0.10;0.10;;;;;;;;;;5144301;27;20094;-46
2023/06/24 11:41:27;;;;;;;0.10;0.10;;;;;;;;;;5127741;27;20075;-43
2023/06/24 11:43:53;;;;;;;0.10;0.10;;;;;;;;;;5123345;28;20081;-43
2023/06/24 11:46:24;;;;;;;0.10;0.10;;;;;;;;;;5129601;27;20051;-42
2023/06/24 11:48:49;;;;;;;0.10;0.10;;;;;;;;;;5130672;27;20054;-45
2023/06/24 11:51:15;;;;;;;0.25;0.25;;;;;;;;;;5115323;28;20411;-43
2023/06/24 11:53:42;;;;;;;0.10;0.10;;;;;;;;;;5117782;28;20059;-42
2023/06/24 11:56:07;;;;;;;0.10;0.10;;;;;;;;;;5130339;28;20047;-43
2023/06/24 11:58:34;;;;;;;0.10;0.10;;;;;;;;;;5130346;28;20044;-42
2023/06/24 12:01:00;;;;;;;0.10;0.10;;;;;;;;;;5118088;27;20481;-46
2023/06/24 12:03:27;;;;;;;0.10;0.10;;;;;;;;;;5129416;28;20475;-42
2023/06/24 12:05:53;;;;;;;0.10;0.10;;;;;;;;;;5130174;27;20178;-45
2023/06/24 12:08:18;;;;;;;0.10;0.10;;;;;;;;;;5129411;28;20047;-43
2023/06/24 12:10:44;;;;;;;0.10;0.10;;;;;;;;;;5119673;28;20490;-42
2023/06/24 12:13:10;;;;;;;0.10;0.10;;;;;;;;;;5109801;28;20327;-41
2023/06/24 12:15:35;;;;;;;0.10;0.10;;;;;;;;;;5109299;28;20042;-44
2023/06/24 12:18:02;;;;;;;0.10;0.10;;;;;;;;;;5091360;28;20050;-41
2023/06/24 12:20:29;;;;;;;0.20;0.20;;;;;;;;;;5109186;28;20073;-42
2023/06/24 12:23:00;;;;;;;0.10;0.10;;;;;;;;;;5090972;28;20047;-43
2023/06/24 12:25:26;;;;;;;0.10;0.10;;;;;;;;;;5109440;28;20112;-42
2023/06/24 12:27:51;;;;;;;0.10;0.10;;;;;;;;;;5118654;27;20054;-45
2023/06/24 12:30:17;;;;;;;0.10;0.10;;;;;;;;;;5136454;27;20054;-42
2023/06/24 12:32:43;;;;;;;0.10;0.10;;;;;;;;;;5111138;28;20059;-44
2023/06/24 12:35:10;;;;;;;0.10;0.10;;;;;;;;;;5110819;28;20501;-44
2023/06/24 12:37:35;;;;;;;0.10;0.10;;;;;;;;;;5128829;28;20051;-42
2023/06/24 12:40:02;;;;;;;0.15;0.15;;;;;;;;;;5124320;28;20050;-43
2023/06/24 12:42:27;;;;;;;0.10;0.10;;;;;;;;;;5108303;28;20047;-43
2023/06/24 12:44:53;;;;;;;0.10;0.10;;;;;;;;;;5107740;28;20043;-41
2023/06/24 12:47:19;;;;;;;0.10;0.10;;;;;;;;;;5109474;28;20401;-43
2023/06/24 12:49:44;;;;;;;0.10;0.10;;;;;;;;;;5126424;27;20050;-42
2023/06/24 12:52:10;;;;;;;0.10;0.10;;;;;;;;;;5108737;28;20085;-42
2023/06/24 12:54:35;;;;;;;0.10;0.10;;;;;;;;;;5107983;28;20047;-42
2023/06/24 12:57:01;;;;;;;0.10;0.10;;;;;;;;;;5127972;28;20138;-46
2023/06/24 12:59:39;;;;;;;0.10;0.10;;;;;;;;;;5126476;27;20175;-44
2023/06/24 13:02:05;;;;;;;0.10;0.10;;;;;;;;;;5108230;28;20070;-43
2023/06/24 13:04:30;;;;;;;0.10;0.10;;;;;;;;;;5122924;28;20055;-42
2023/06/24 13:06:56;;;;;;;0.10;0.10;;;;;;;;;;5128613;28;20051;-43
2023/06/24 13:09:21;;;;;;;0.10;0.10;;;;;;;;;;5128110;28;20415;-42
2023/06/24 13:11:48;;;;;;;0.10;0.10;;;;;;;;;;5128315;28;20100;-44
2023/06/24 13:14:13;;;;;;;0.10;0.10;;;;;;;;;;5128230;28;20047;-44
2023/06/24 13:16:39;;;;;;;0.10;0.10;;;;;;;;;;5128183;28;20124;-45
2023/06/24 13:19:04;;;;;;;0.10;0.10;;;;;;;;;;5110278;28;20047;-43
2023/06/24 13:21:30;;;;;;;0.10;0.10;;;;;;;;;;5128041;28;20259;-43
2023/06/24 13:23:55;;;;;;;0.10;0.10;;;;;;;;;;5128417;28;20047;-42
2023/06/24 13:26:21;;;;;;;0.10;0.10;;;;;;;;;;5128499;27;20507;-42
2023/06/24 13:28:48;;;;;;;0.10;0.10;;;;;;;;;;5109973;28;20077;-43
2023/06/24 13:31:14;;;;;;;0.10;0.10;;;;;;;;;;5127687;28;20407;-43
2023/06/24 13:33:42;;;;;;;0.10;0.10;;;;;;;;;;5128633;28;20067;-44
2023/06/24 13:36:11;;;;;;;0.10;0.10;;;;;;;;;;5127943;28;20290;-42
2023/06/24 13:38:37;;;;;;;0.10;0.10;;;;;;;;;;5127826;27;20050;-41
2023/06/24 13:41:03;;;;;;;0.10;0.10;;;;;;;;;;5115291;28;20311;-41
2023/06/24 13:43:28;;;;;;;0.10;0.10;;;;;;;;;;5107520;28;20051;-44
2023/06/24 13:45:54;;;;;;;0.10;0.10;;;;;;;;;;5108049;28;20043;-45
2023/06/24 13:48:19;;;;;;;0.10;0.10;;;;;;;;;;5107958;28;20495;-41
2023/06/24 13:50:45;;;;;;;0.10;0.10;;;;;;;;;;5121057;28;20050;-43
2023/06/24 13:53:10;;;;;;;0.10;0.10;;;;;;;;;;5128685;28;21488;-42
2023/06/24 13:55:36;;;;;;;0.10;0.10;;;;;;;;;;5128211;28;20047;-43
2023/06/24 13:58:01;;;;;;;0.10;0.10;;;;;;;;;;5127762;28;20096;-45
2023/06/24 14:00:27;;;;;;;0.10;0.10;;;;;;;;;;5128112;28;20187;-43
2023/06/24 14:02:53;;;;;;;0.10;0.10;;;;;;;;;;5126814;28;20047;-44
2023/06/24 14:05:19;;;;;;;0.10;0.10;;;;;;;;;;5110252;28;20051;-43
2023/06/24 14:07:44;;;;;;;0.10;0.10;;;;;;;;;;5126931;28;20169;-43
2023/06/24 14:10:10;;;;;;;0.10;0.10;;;;;;;;;;5126882;27;20168;-43
2023/06/24 14:12:35;;;;;;;0.10;0.10;;;;;;;;;;5109288;28;20043;-43
2023/06/24 14:15:01;;;;;;;0.10;0.10;;;;;;;;;;5127125;28;20074;-41
2023/06/24 14:17:27;;;;;;;0.10;0.10;;;;;;;;;;5127258;28;20055;-45
2023/06/24 14:19:52;;;;;;;0.10;0.10;;;;;;;;;;5127306;28;20078;-42
2023/06/24 14:22:18;;;;;;;0.10;0.10;;;;;;;;;;5126813;28;20047;-45
2023/06/24 14:24:43;;;;;;;0.10;0.10;;;;;;;;;;5126750;28;20120;-43
2023/06/24 14:27:09;;;;;;;0.10;0.10;;;;;;;;;;5127211;27;20533;-42
2023/06/24 14:29:34;;;;;;;0.10;0.10;;;;;;;;;;5126969;28;20495;-45
2023/06/24 14:32:00;;;;;;;0.10;0.10;;;;;;;;;;5127556;28;20051;-44
2023/06/24 14:34:29;;;;;;;0.10;0.10;;;;;;;;;;5127096;28;20043;-43
2023/06/24 14:36:55;;;;;;;0.10;0.10;;;;;;;;;;5108901;28;20075;-44
2023/06/24 14:39:20;;;;;;;0.10;0.10;;;;;;;;;;5125191;28;20039;-45
2023/06/24 14:41:46;;;;;;;0.10;0.10;;;;;;;;;;5119374;28;20069;-44
2023/06/24 14:44:11;;;;;;;0.10;0.10;;;;;;;;;;5126467;28;20051;-43